createdAt,value
2018-10-16T00:00:58.550Z,8.70
2018-10-16T00:03:27.003Z,8.03
2018-10-16T00:05:55.493Z,8.03
2018-10-16T00:08:23.913Z,7.60
2018-10-16T00:10:53.192Z,8.03
2018-10-16T00:13:21.645Z,8.03
2018-10-16T00:15:50.082Z,8.40
2018-10-16T00:18:18.488Z,7.70
2018-10-16T00:20:46.897Z,8.17
2018-10-16T00:23:15.391Z,8.97
2018-10-16T00:25:43.871Z,8.57
2018-10-16T00:28:12.416Z,9.00
2018-10-16T00:30:41.793Z,8.20
2018-10-16T00:33:10.261Z,8.37
2018-10-16T00:35:38.760Z,8.70
2018-10-16T00:38:07.211Z,8.50
2018-10-16T00:40:35.862Z,8.00
2018-10-16T00:43:04.408Z,8.87
2018-10-16T00:45:32.845Z,9.50
2018-10-16T00:48:01.247Z,8.17
2018-10-16T00:50:29.680Z,8.80
2018-10-16T00:52:58.116Z,9.27
2018-10-16T00:55:26.597Z,9.23
2018-10-16T00:57:55.090Z,9.00
2018-10-16T01:00:23.557Z,9.10
2018-10-16T01:02:52.077Z,8.70
2018-10-16T01:05:20.501Z,8.50
2018-10-16T01:07:49.173Z,8.93
2018-10-16T01:10:17.638Z,9.33
2018-10-16T01:12:46.053Z,9.33
2018-10-16T01:15:14.482Z,9.33
2018-10-16T01:17:42.924Z,9.23
2018-10-16T01:20:14.481Z,8.87
2018-10-16T01:22:43.505Z,9.27
2018-10-16T01:25:12.804Z,8.63
2018-10-16T01:27:41.437Z,9.10
2018-10-16T01:30:09.993Z,8.90
2018-10-16T01:32:38.924Z,9.43
2018-10-16T01:35:08.775Z,9.10
2018-10-16T01:37:37.284Z,8.93
2018-10-16T01:40:07.253Z,9.00
2018-10-16T01:42:35.829Z,9.87
2018-10-16T01:45:04.451Z,8.33
2018-10-16T01:47:33.161Z,8.97
2018-10-16T01:50:01.777Z,8.70
2018-10-16T01:52:30.378Z,8.53
2018-10-16T01:54:58.912Z,9.77
2018-10-16T01:57:27.413Z,9.73
2018-10-16T01:59:55.971Z,9.50
2018-10-16T02:02:24.537Z,9.60
2018-10-16T02:04:53.135Z,9.97
2018-10-16T02:07:21.736Z,9.00
2018-10-16T02:09:50.658Z,9.60
2018-10-16T02:12:19.199Z,10.20
2018-10-16T02:14:47.814Z,9.43
2018-10-16T02:17:16.357Z,10.00
2018-10-16T02:19:44.900Z,10.27
2018-10-16T02:22:13.397Z,9.87
2018-10-16T02:24:42.070Z,10.63
2018-10-16T02:27:10.685Z,10.07
2018-10-16T02:29:39.264Z,10.40
2018-10-16T02:32:07.835Z,9.93
2018-10-16T02:34:36.378Z,10.17
2018-10-16T02:37:05.261Z,9.63
2018-10-16T02:39:33.830Z,10.23
2018-10-16T02:42:02.434Z,11.20
2018-10-16T02:44:30.953Z,10.30
2018-10-16T02:46:59.531Z,10.23
2018-10-16T02:49:27.955Z,11.17
2018-10-16T02:51:56.401Z,11.17
2018-10-16T02:54:24.923Z,11.20
2018-10-16T02:56:53.869Z,10.37
2018-10-16T02:59:22.400Z,10.80
2018-10-16T03:01:50.906Z,10.70
2018-10-16T03:04:19.507Z,10.70
2018-10-16T03:06:48.044Z,12.10
2018-10-16T03:09:16.653Z,11.50
2018-10-16T03:11:45.140Z,11.30
2018-10-16T03:14:13.887Z,11.27
2018-10-16T03:16:42.552Z,10.67
2018-10-16T03:19:11.138Z,10.90
2018-10-16T03:21:39.851Z,10.60
2018-10-16T03:24:09.173Z,11.20
2018-10-16T03:26:38.118Z,10.40
2018-10-16T03:29:07.124Z,12.00
2018-10-16T03:31:35.760Z,11.43
2018-10-16T03:34:04.487Z,13.00
2018-10-16T03:36:33.045Z,11.77
2018-10-16T03:39:01.708Z,12.80
2018-10-16T03:41:30.339Z,12.33
2018-10-16T03:44:01.282Z,12.00
2018-10-16T03:46:30.252Z,13.67
2018-10-16T03:48:58.840Z,12.33
2018-10-16T03:51:27.399Z,11.43
2018-10-16T03:53:56.566Z,14.40
2018-10-16T03:56:25.881Z,13.43
2018-10-16T03:58:54.448Z,12.03
2018-10-16T04:01:24.296Z,11.70
2018-10-16T04:03:52.904Z,11.53
2018-10-16T04:06:21.903Z,12.10
2018-10-16T04:08:51.258Z,11.60
2018-10-16T04:11:20.040Z,12.37
2018-10-16T04:13:49.004Z,12.00
2018-10-16T04:16:18.080Z,12.60
2018-10-16T04:18:46.737Z,12.40
2018-10-16T04:21:15.369Z,12.43
2018-10-16T04:23:44.348Z,12.67
2018-10-16T04:26:13.317Z,13.40
2018-10-16T04:28:41.796Z,13.60
2018-10-16T04:31:12.404Z,13.40
2018-10-16T04:33:41.149Z,13.40
2018-10-16T04:36:09.728Z,12.40
2018-10-16T04:38:38.435Z,11.43
2018-10-16T04:41:06.924Z,11.50
2018-10-16T04:43:35.472Z,12.13
2018-10-16T04:46:03.885Z,12.40
2018-10-16T04:48:32.399Z,12.63
2018-10-16T04:51:00.901Z,12.40
2018-10-16T04:53:29.518Z,12.30
2018-10-16T04:55:58.110Z,12.37
2018-10-16T04:58:26.941Z,12.93
2018-10-16T05:00:55.575Z,13.83
2018-10-16T05:03:25.113Z,12.80
2018-10-16T05:05:55.298Z,12.40
2018-10-16T05:08:23.857Z,12.20
2018-10-16T05:10:52.483Z,12.17
2018-10-16T05:13:21.149Z,13.30
2018-10-16T05:15:49.611Z,13.27
2018-10-16T05:18:18.113Z,12.97
2018-10-16T05:20:46.606Z,13.03
2018-10-16T05:23:15.053Z,14.60
2018-10-16T05:25:43.652Z,12.80
2018-10-16T05:28:12.136Z,12.97
2018-10-16T05:30:40.749Z,13.67
2018-10-16T05:33:09.275Z,13.97
2018-10-16T05:35:37.757Z,13.60
2018-10-16T05:38:06.379Z,14.23
2018-10-16T05:40:34.898Z,14.03
2018-10-16T05:43:03.651Z,13.20
2018-10-16T05:45:33.952Z,14.40
2018-10-16T05:48:02.438Z,13.90
2018-10-16T05:50:31.904Z,14.00
2018-10-16T05:53:00.745Z,14.07
2018-10-16T05:55:29.353Z,15.77
2018-10-16T05:57:57.945Z,14.60
2018-10-16T06:00:36.333Z,16.73
2018-10-16T06:03:05.078Z,14.53
2018-10-16T06:05:33.782Z,13.80
2018-10-16T06:08:02.482Z,13.80
2018-10-16T06:10:31.460Z,14.00
2018-10-16T06:13:00.073Z,13.50
2018-10-16T06:15:28.618Z,12.60
2018-10-16T06:17:57.213Z,12.77
2018-10-16T06:20:25.758Z,14.77
2018-10-16T06:22:54.263Z,13.37
2018-10-16T06:25:22.820Z,12.77
2018-10-16T06:27:51.464Z,12.60
2018-10-16T06:30:20.987Z,13.97
2018-10-16T06:32:49.701Z,13.20
2018-10-16T06:35:18.488Z,13.03
2018-10-16T06:37:48.528Z,15.47
2018-10-16T06:40:18.355Z,13.13
2018-10-16T06:42:47.051Z,13.27
2018-10-16T06:45:16.527Z,13.10
2018-10-16T06:47:46.201Z,12.07
2018-10-16T06:50:15.907Z,11.77
2018-10-16T06:52:45.318Z,12.60
2018-10-16T06:55:14.228Z,11.63
2018-10-16T06:57:42.807Z,13.13
2018-10-16T07:00:11.479Z,13.03
2018-10-16T07:02:40.157Z,12.90
2018-10-16T07:05:08.965Z,12.03
2018-10-16T07:07:38.538Z,11.30
2018-10-16T07:10:08.860Z,11.13
2018-10-16T07:12:37.603Z,10.83
2018-10-16T07:15:07.735Z,11.57
2018-10-16T07:17:36.235Z,11.60
2018-10-16T07:20:05.631Z,11.60
2018-10-16T07:22:34.214Z,11.17
2018-10-16T07:25:02.854Z,9.90
2018-10-16T07:27:31.542Z,10.20
2018-10-16T07:30:00.212Z,9.43
2018-10-16T07:32:28.822Z,10.17
2018-10-16T07:34:57.399Z,9.27
2018-10-16T07:37:26.032Z,9.30
2018-10-16T07:39:54.568Z,8.73
2018-10-16T07:42:23.065Z,9.13
2018-10-16T07:44:51.629Z,8.50
2018-10-16T07:47:20.139Z,8.50
2018-10-16T07:49:48.674Z,8.10
2018-10-16T07:52:17.251Z,8.70
2018-10-16T07:54:45.758Z,9.03
2018-10-16T07:57:14.511Z,8.33
2018-10-16T07:59:43.161Z,8.47
2018-10-16T08:02:11.875Z,8.17
2018-10-16T08:04:40.397Z,8.30
2018-10-16T08:07:10.013Z,8.97
2018-10-16T08:09:39.722Z,8.80
2018-10-16T08:12:10.036Z,9.20
2018-10-16T08:14:39.089Z,8.03
2018-10-16T08:17:07.940Z,8.87
2018-10-16T08:19:36.602Z,7.70
2018-10-16T08:22:05.171Z,8.83
2018-10-16T08:24:33.702Z,8.30
2018-10-16T08:27:03.181Z,9.10
2018-10-16T08:29:31.728Z,9.00
2018-10-16T08:32:01.261Z,8.77
2018-10-16T08:34:29.766Z,8.50
2018-10-16T08:36:58.473Z,10.00
2018-10-16T08:39:29.593Z,7.77
2018-10-16T08:43:21.357Z,9.00
2018-10-16T08:46:01.253Z,8.40
2018-10-16T08:48:41.042Z,8.07
2018-10-16T08:51:20.670Z,7.30
2018-10-16T08:53:49.167Z,8.60
2018-10-16T08:56:17.784Z,9.60
2018-10-16T08:58:46.343Z,8.27
2018-10-16T09:01:14.962Z,9.57
2018-10-16T09:03:43.551Z,9.03
2018-10-16T09:06:12.133Z,9.20
2018-10-16T09:08:40.640Z,9.50
2018-10-16T09:11:09.246Z,9.50
2018-10-16T09:13:37.768Z,8.70
2018-10-16T09:16:06.314Z,8.50
2018-10-16T09:18:34.986Z,9.40
2018-10-16T09:21:03.504Z,9.07
2018-10-16T09:23:32.017Z,8.90
2018-10-16T09:26:00.537Z,9.13
2018-10-16T09:28:29.066Z,9.37
2018-10-16T09:30:57.851Z,9.17
2018-10-16T09:33:26.535Z,9.67
2018-10-16T09:35:55.028Z,11.20
2018-10-16T09:38:23.512Z,10.57
2018-10-16T09:40:52.104Z,9.77
2018-10-16T09:43:20.614Z,9.73
2018-10-16T09:45:49.086Z,9.23
2018-10-16T09:48:17.560Z,9.73
2018-10-16T09:50:46.049Z,10.37
2018-10-16T09:53:14.509Z,9.30
2018-10-16T09:55:43.033Z,9.47
2018-10-16T09:58:11.521Z,9.70
2018-10-16T10:00:45.357Z,11.40
2018-10-16T10:03:13.749Z,10.07
2018-10-16T10:05:42.275Z,9.50
2018-10-16T10:08:10.758Z,9.80
2018-10-16T10:10:39.369Z,9.57
2018-10-16T10:13:07.850Z,8.97
2018-10-16T10:15:36.395Z,8.50
2018-10-16T10:18:05.438Z,10.13
2018-10-16T10:20:33.975Z,10.10
2018-10-16T10:23:02.567Z,9.50
2018-10-16T10:25:31.057Z,9.13
2018-10-16T10:27:59.539Z,8.90
2018-10-16T10:30:28.217Z,8.30
2018-10-16T10:32:57.050Z,7.97
2018-10-16T10:35:25.749Z,8.70
2018-10-16T10:37:54.261Z,8.87
2018-10-16T10:40:22.857Z,8.20
2018-10-16T10:42:51.532Z,7.27
2018-10-16T10:45:20.214Z,8.07
2018-10-16T10:47:48.730Z,8.50
2018-10-16T10:50:17.523Z,7.90
2018-10-16T10:52:45.886Z,8.87
2018-10-16T10:55:14.342Z,8.80
2018-10-16T10:57:43.387Z,8.00
2018-10-16T11:00:21.894Z,8.57
2018-10-16T11:02:50.481Z,8.73
2018-10-16T11:05:19.012Z,8.37
2018-10-16T11:07:47.502Z,9.30
2018-10-16T11:10:16.072Z,8.40
2018-10-16T11:12:45.002Z,8.60
2018-10-16T11:15:13.613Z,8.97
2018-10-16T11:17:42.226Z,9.20
2018-10-16T11:20:12.659Z,8.63
2018-10-16T11:22:41.249Z,7.50
2018-10-16T11:25:11.335Z,8.70
2018-10-16T11:27:39.911Z,8.53
2018-10-16T11:30:11.994Z,8.83
2018-10-16T11:32:40.893Z,8.70
2018-10-16T11:35:10.547Z,7.97
2018-10-16T11:37:39.453Z,8.00
2018-10-16T11:40:08.484Z,7.83
2018-10-16T11:42:36.983Z,8.10
2018-10-16T11:45:06.570Z,7.80
2018-10-16T11:47:35.012Z,8.57
2018-10-16T11:50:03.580Z,8.33
2018-10-16T11:52:31.985Z,7.80
2018-10-16T11:55:00.480Z,8.20
2018-10-16T11:57:28.946Z,7.50
2018-10-16T11:59:57.536Z,7.03
2018-10-16T12:02:26.042Z,7.33
2018-10-16T12:04:54.444Z,7.23
2018-10-16T12:07:22.928Z,6.33
2018-10-16T12:09:51.439Z,7.17
2018-10-16T12:12:19.978Z,7.00
2018-10-16T12:14:48.401Z,8.10
2018-10-16T12:17:20.753Z,6.63
2018-10-16T12:19:52.461Z,7.33
2018-10-16T12:22:20.892Z,7.50
2018-10-16T12:24:49.430Z,7.20
2018-10-16T12:27:17.882Z,7.43
2018-10-16T12:29:46.440Z,7.40
2018-10-16T12:32:15.204Z,7.47
2018-10-16T12:34:43.640Z,7.10
2018-10-16T12:37:12.211Z,6.93
2018-10-16T12:39:40.704Z,6.40
2018-10-16T12:42:09.249Z,6.40
2018-10-16T12:44:38.538Z,7.07
2018-10-16T12:47:07.117Z,6.73
2018-10-16T12:49:35.727Z,6.73
2018-10-16T12:52:04.180Z,6.90
2018-10-16T12:54:32.644Z,7.23
2018-10-16T12:57:01.127Z,7.00
2018-10-16T12:59:29.602Z,6.73
2018-10-16T13:01:58.111Z,7.13
2018-10-16T13:04:26.524Z,7.33
2018-10-16T13:06:54.959Z,6.67
2018-10-16T13:09:23.461Z,6.00
2018-10-16T13:11:51.992Z,6.53
2018-10-16T13:14:20.452Z,6.90
2018-10-16T13:16:49.192Z,7.23
2018-10-16T13:19:17.656Z,6.83
2018-10-16T13:21:46.150Z,6.27
2018-10-16T13:24:14.720Z,7.90
2018-10-16T13:26:43.249Z,8.37
2018-10-16T13:29:11.799Z,8.17
2018-10-16T13:31:40.302Z,9.07
2018-10-16T13:34:08.896Z,9.00
2018-10-16T13:36:37.379Z,7.63
2018-10-16T13:39:07.607Z,8.63
2018-10-16T13:41:36.117Z,8.60
2018-10-16T13:44:04.604Z,7.40
2018-10-16T13:46:33.113Z,7.27
2018-10-16T13:49:01.632Z,7.50
2018-10-16T13:51:30.236Z,7.53
2018-10-16T13:53:58.833Z,7.23
2018-10-16T13:56:28.291Z,6.80
2018-10-16T13:58:56.756Z,6.53
2018-10-16T14:01:25.380Z,6.40
2018-10-16T14:03:54.040Z,6.63
2018-10-16T14:06:22.531Z,7.20
2018-10-16T14:08:51.113Z,7.00
2018-10-16T14:11:19.563Z,6.53
2018-10-16T14:13:48.160Z,5.93
2018-10-16T14:16:16.690Z,5.77
2018-10-16T14:18:45.164Z,6.00
2018-10-16T14:21:13.700Z,5.60
2018-10-16T14:23:42.255Z,6.10
2018-10-16T14:26:10.822Z,5.30
2018-10-16T14:28:39.392Z,4.80
2018-10-16T14:31:07.995Z,5.40
2018-10-16T14:33:36.625Z,5.20
2018-10-16T14:36:05.319Z,5.83
2018-10-16T14:38:33.947Z,6.00
2018-10-16T14:41:03.421Z,5.97
2018-10-16T14:43:32.148Z,5.50
2018-10-16T14:46:01.182Z,5.40
2018-10-16T14:48:29.684Z,5.07
2018-10-16T14:50:58.124Z,5.03
2018-10-16T14:53:26.572Z,4.93
2018-10-16T14:55:55.022Z,4.97
2018-10-16T14:58:23.491Z,5.37
2018-10-16T15:00:51.973Z,5.60
2018-10-16T15:03:20.421Z,5.40
2018-10-16T15:05:48.860Z,5.40
2018-10-16T15:08:17.520Z,5.37
2018-10-16T15:10:45.967Z,5.23
2018-10-16T15:13:14.337Z,5.40
2018-10-16T15:15:42.676Z,5.63
2018-10-16T15:18:11.076Z,5.63
2018-10-16T15:20:39.501Z,5.03
2018-10-16T15:23:07.927Z,6.47
2018-10-16T15:25:36.368Z,4.97
2018-10-16T15:28:04.955Z,5.30
2018-10-16T15:30:33.420Z,5.47
2018-10-16T15:33:01.764Z,5.30
2018-10-16T15:35:30.162Z,5.63
2018-10-16T15:37:58.570Z,5.47
2018-10-16T15:40:26.930Z,5.90
2018-10-16T15:42:55.288Z,5.80
2018-10-16T15:45:23.699Z,5.73
2018-10-16T15:47:52.160Z,6.20
2018-10-16T15:50:20.651Z,6.70
2018-10-16T15:52:49.167Z,6.30
2018-10-16T15:55:17.576Z,6.77
2018-10-16T15:57:46.038Z,6.23
2018-10-16T16:00:15.648Z,6.60
2018-10-16T16:02:44.058Z,7.10
2018-10-16T16:05:12.887Z,6.70
2018-10-16T16:07:41.537Z,6.87
2018-10-16T16:10:11.965Z,7.43
2018-10-16T16:12:40.378Z,7.20
2018-10-16T16:15:10.504Z,6.07
2018-10-16T16:17:38.945Z,6.87
2018-10-16T16:20:08.733Z,7.03
2018-10-16T16:22:37.080Z,7.70
2018-10-16T16:25:06.789Z,7.80
2018-10-16T16:27:35.448Z,7.70
2018-10-16T16:30:04.397Z,7.20
2018-10-16T16:32:32.884Z,7.60
2018-10-16T16:35:01.376Z,8.30
2018-10-16T16:37:29.913Z,7.90
2018-10-16T16:39:58.403Z,8.37
2018-10-16T16:42:26.802Z,9.27
2018-10-16T16:44:55.384Z,8.93
2018-10-16T16:47:23.809Z,8.60
2018-10-16T16:49:52.350Z,8.57
2018-10-16T16:52:20.888Z,8.40
2018-10-16T16:54:49.260Z,9.40
2018-10-16T16:57:17.805Z,9.70
2018-10-16T16:59:46.564Z,10.47
2018-10-16T17:02:15.034Z,8.03
2018-10-16T17:04:43.454Z,9.23
2018-10-16T17:07:11.880Z,9.80
2018-10-16T17:09:40.404Z,10.30
2018-10-16T17:12:08.787Z,9.77
2018-10-16T17:14:37.161Z,10.20
2018-10-16T17:17:05.684Z,9.93
2018-10-16T17:19:34.056Z,9.40
2018-10-16T17:22:02.516Z,10.40
2018-10-16T17:24:30.846Z,10.13
2018-10-16T17:26:59.291Z,10.57
2018-10-16T17:29:27.766Z,10.07
2018-10-16T17:31:56.282Z,10.57
2018-10-16T17:34:24.704Z,10.20
2018-10-16T17:36:53.105Z,9.93
2018-10-16T17:39:21.591Z,9.73
2018-10-16T17:41:50.020Z,11.20
2018-10-16T17:44:18.568Z,10.50
2018-10-16T17:46:47.107Z,10.40
2018-10-16T17:49:15.540Z,10.40
2018-10-16T17:51:43.933Z,10.03
2018-10-16T17:54:12.385Z,10.30
2018-10-16T17:56:40.852Z,11.60
2018-10-16T17:59:09.276Z,10.13
2018-10-16T18:01:37.696Z,9.10
2018-10-16T18:04:06.235Z,9.73
2018-10-16T18:06:34.615Z,10.60
2018-10-16T18:09:03.066Z,10.77
2018-10-16T18:11:31.422Z,9.93
2018-10-16T18:13:59.816Z,10.73
2018-10-16T18:16:28.276Z,9.20
2018-10-16T18:18:56.664Z,10.00
2018-10-16T18:21:25.157Z,9.37
2018-10-16T18:23:53.568Z,10.10
2018-10-16T18:26:21.921Z,10.47
2018-10-16T18:28:50.329Z,12.30
2018-10-16T18:31:18.736Z,10.83
2018-10-16T18:33:47.118Z,11.20
2018-10-16T18:36:15.524Z,12.67
2018-10-16T18:38:43.948Z,10.87
2018-10-16T18:41:12.385Z,10.67
2018-10-16T18:43:40.793Z,10.70
2018-10-16T18:46:09.399Z,10.43
2018-10-16T18:48:37.817Z,11.17
2018-10-16T18:51:06.257Z,10.20
2018-10-16T18:53:34.621Z,10.23
2018-10-16T18:56:02.979Z,10.60
2018-10-16T18:58:31.420Z,10.53
2018-10-16T19:00:59.864Z,10.53
2018-10-16T19:03:28.349Z,10.67
2018-10-16T19:05:56.788Z,10.47
2018-10-16T19:08:25.120Z,10.80
2018-10-16T19:10:53.577Z,9.40
2018-10-16T19:13:22.166Z,11.40
2018-10-16T19:15:50.492Z,10.23
2018-10-16T19:18:18.839Z,11.23
2018-10-16T19:20:47.221Z,11.20
2018-10-16T19:23:15.609Z,10.60
2018-10-16T19:25:44.016Z,11.37
2018-10-16T19:28:12.430Z,11.40
2018-10-16T19:30:40.957Z,11.43
2018-10-16T19:33:09.501Z,11.60
2018-10-16T19:35:38.084Z,11.13
2018-10-16T19:38:07.207Z,9.87
2018-10-16T19:40:35.676Z,9.00
2018-10-16T19:43:04.180Z,10.73
2018-10-16T19:45:32.685Z,9.10
2018-10-16T19:48:02.405Z,10.67
2018-10-16T19:50:31.073Z,10.20
2018-10-16T19:53:07.992Z,9.47
2018-10-16T19:55:36.656Z,8.90
2018-10-16T19:58:05.225Z,8.00
2018-10-16T20:00:33.620Z,7.43
2018-10-16T20:03:02.031Z,7.23
2018-10-16T20:05:30.370Z,6.23
2018-10-16T20:07:58.756Z,6.07
2018-10-16T20:10:27.145Z,6.90
2018-10-16T20:12:55.578Z,6.83
2018-10-16T20:15:24.901Z,7.63
2018-10-16T20:17:53.330Z,7.60
2018-10-16T20:20:21.733Z,7.80
2018-10-16T20:22:50.161Z,7.93
2018-10-16T20:25:18.655Z,7.70
2018-10-16T20:27:47.028Z,7.40
2018-10-16T20:30:15.423Z,7.83
2018-10-16T20:32:43.928Z,7.87
2018-10-16T20:35:12.300Z,7.80
2018-10-16T20:37:40.737Z,7.60
2018-10-16T20:40:09.219Z,8.27
2018-10-16T20:42:38.057Z,8.50
2018-10-16T20:45:06.652Z,8.70
2018-10-16T20:47:35.092Z,8.43
2018-10-16T20:50:03.413Z,8.97
2018-10-16T20:52:31.861Z,7.50
2018-10-16T20:55:00.246Z,8.43
2018-10-16T20:57:28.746Z,8.47
2018-10-16T20:59:57.440Z,7.47
2018-10-16T21:02:25.852Z,8.03
2018-10-16T21:04:54.299Z,8.00
2018-10-16T21:07:22.604Z,7.97
2018-10-16T21:09:51.033Z,7.93
2018-10-16T21:12:19.436Z,7.90
2018-10-16T21:14:47.744Z,7.90
2018-10-16T21:17:16.039Z,6.80
2018-10-16T21:19:44.379Z,7.27
2018-10-16T21:22:12.676Z,7.77
2018-10-16T21:24:41.002Z,7.13
2018-10-16T21:27:10.607Z,7.37
2018-10-16T21:29:38.930Z,7.10
2018-10-16T21:32:07.896Z,8.00
2018-10-16T21:34:36.210Z,7.87
2018-10-16T21:37:04.657Z,8.07
2018-10-16T21:39:32.939Z,7.00
2018-10-16T21:42:01.253Z,7.50
2018-10-16T21:44:30.278Z,6.57
2018-10-16T21:46:58.724Z,7.23
2018-10-16T21:49:27.034Z,7.23
2018-10-16T21:51:55.356Z,7.33
2018-10-16T21:54:23.660Z,6.67
2018-10-16T21:56:52.067Z,6.63
2018-10-16T21:59:20.536Z,6.70
2018-10-16T22:01:54.175Z,6.80
2018-10-16T22:04:22.547Z,6.17
2018-10-16T22:06:50.922Z,6.67
2018-10-16T22:09:19.267Z,6.80
2018-10-16T22:11:47.615Z,7.03
2018-10-16T22:14:15.979Z,6.50
2018-10-16T22:16:44.301Z,6.90
2018-10-16T22:19:12.742Z,7.67
2018-10-16T22:21:41.032Z,6.50
2018-10-16T22:24:09.376Z,6.03
2018-10-16T22:26:37.677Z,6.80
2018-10-16T22:29:06.013Z,6.47
2018-10-16T22:31:34.304Z,6.30
2018-10-16T22:34:02.629Z,6.50
2018-10-16T22:36:30.997Z,6.37
2018-10-16T22:38:59.343Z,7.37
2018-10-16T22:41:27.777Z,6.87
2018-10-16T22:43:56.065Z,6.77
2018-10-16T22:46:24.637Z,7.60
2018-10-16T22:48:53.013Z,7.10
2018-10-16T22:51:21.286Z,7.00
2018-10-16T22:53:49.597Z,8.07
2018-10-16T22:56:17.920Z,7.80
2018-10-16T22:58:46.247Z,8.50
2018-10-16T23:01:14.700Z,7.57
2018-10-16T23:03:43.076Z,7.37
2018-10-16T23:06:11.410Z,8.23
2018-10-16T23:08:39.793Z,7.70
2018-10-16T23:11:08.126Z,7.43
2018-10-16T23:13:36.400Z,7.53
2018-10-16T23:16:04.700Z,8.83
2018-10-16T23:18:33.039Z,8.30
2018-10-16T23:21:01.468Z,9.57
2018-10-16T23:23:30.131Z,8.30
2018-10-16T23:25:58.562Z,8.40
2018-10-16T23:28:26.980Z,9.20
2018-10-16T23:30:55.431Z,9.67
2018-10-16T23:33:23.832Z,8.90
2018-10-16T23:35:52.244Z,8.53
2018-10-16T23:38:20.719Z,9.60
2018-10-16T23:40:49.221Z,9.00
2018-10-16T23:43:17.811Z,8.43
2018-10-16T23:45:46.201Z,7.70
2018-10-16T23:48:14.660Z,8.23
2018-10-16T23:50:43.130Z,9.33
2018-10-16T23:53:11.577Z,8.93
2018-10-16T23:55:40.043Z,9.50
2018-10-16T23:58:08.438Z,9.20
